sensor_id;sensor_type;location;lat;lon;timestamp;P1;durP1;ratioP1;P2;durP2;ratioP2
41043;SDS011;51680;49.806;18.774;2022-07-01T00:01:54;10.65;;;4.85;;
41043;SDS011;51680;49.806;18.774;2022-07-01T00:04:57;11.85;;;5.03;;
41043;SDS011;51680;49.806;18.774;2022-07-01T00:08:17;12.00;;;5.78;;
41043;SDS011;51680;49.806;18.774;2022-07-01T00:11:19;10.77;;;6.00;;
41043;SDS011;51680;49.806;18.774;2022-07-01T00:14:21;8.20;;;5.20;;
41043;SDS011;51680;49.806;18.774;2022-07-01T00:17:23;13.23;;;5.65;;
41043;SDS011;51680;49.806;18.774;2022-07-01T00:20:26;14.38;;;5.15;;
41043;SDS011;51680;49.806;18.774;2022-07-01T00:23:28;10.05;;;4.95;;
41043;SDS011;51680;49.806;18.774;2022-07-01T00:26:31;8.57;;;5.45;;
41043;SDS011;51680;49.806;18.774;2022-07-01T00:29:33;10.85;;;5.10;;
41043;SDS011;51680;49.806;18.774;2022-07-01T00:32:35;11.90;;;5.38;;
41043;SDS011;51680;49.806;18.774;2022-07-01T00:35:39;7.68;;;5.28;;
41043;SDS011;51680;49.806;18.774;2022-07-01T00:38:41;8.57;;;5.15;;
41043;SDS011;51680;49.806;18.774;2022-07-01T00:41:42;10.55;;;4.75;;
41043;SDS011;51680;49.806;18.774;2022-07-01T00:44:44;7.18;;;4.75;;
41043;SDS011;51680;49.806;18.774;2022-07-01T00:47:46;7.97;;;4.72;;
41043;SDS011;51680;49.806;18.774;2022-07-01T00:50:49;11.30;;;4.70;;
41043;SDS011;51680;49.806;18.774;2022-07-01T00:53:52;11.68;;;5.10;;
41043;SDS011;51680;49.806;18.774;2022-07-01T00:56:54;15.50;;;5.40;;
41043;SDS011;51680;49.806;18.774;2022-07-01T00:59:58;7.35;;;5.13;;
41043;SDS011;51680;49.806;18.774;2022-07-01T01:03:00;9.57;;;4.80;;
41043;SDS011;51680;49.806;18.774;2022-07-01T01:06:04;9.55;;;5.40;;
41043;SDS011;51680;49.806;18.774;2022-07-01T01:09:06;9.10;;;4.90;;
41043;SDS011;51680;49.806;18.774;2022-07-01T01:12:07;9.38;;;4.88;;
41043;SDS011;51680;49.806;18.774;2022-07-01T01:15:16;9.38;;;4.72;;
41043;SDS011;51680;49.806;18.774;2022-07-01T01:18:19;8.35;;;5.10;;
41043;SDS011;51680;49.806;18.774;2022-07-01T01:21:22;8.23;;;4.93;;
41043;SDS011;51680;49.806;18.774;2022-07-01T01:24:24;11.35;;;5.00;;
41043;SDS011;51680;49.806;18.774;2022-07-01T01:27:31;8.38;;;5.10;;
41043;SDS011;51680;49.806;18.774;2022-07-01T01:30:33;11.18;;;5.20;;
41043;SDS011;51680;49.806;18.774;2022-07-01T01:33:35;8.40;;;5.00;;
41043;SDS011;51680;49.806;18.774;2022-07-01T01:36:39;7.53;;;4.85;;
41043;SDS011;51680;49.806;18.774;2022-07-01T01:39:41;8.75;;;5.13;;
41043;SDS011;51680;49.806;18.774;2022-07-01T01:42:43;6.97;;;4.80;;
41043;SDS011;51680;49.806;18.774;2022-07-01T01:45:45;13.63;;;5.32;;
41043;SDS011;51680;49.806;18.774;2022-07-01T01:48:47;8.85;;;5.05;;
41043;SDS011;51680;49.806;18.774;2022-07-01T01:51:50;10.23;;;5.38;;
41043;SDS011;51680;49.806;18.774;2022-07-01T01:54:52;9.87;;;4.90;;
41043;SDS011;51680;49.806;18.774;2022-07-01T01:57:53;13.15;;;5.10;;
41043;SDS011;51680;49.806;18.774;2022-07-01T02:00:55;12.82;;;4.90;;
41043;SDS011;51680;49.806;18.774;2022-07-01T02:03:57;10.93;;;4.78;;
41043;SDS011;51680;49.806;18.774;2022-07-01T02:07:00;7.32;;;4.55;;
41043;SDS011;51680;49.806;18.774;2022-07-01T02:10:03;12.07;;;4.80;;
41043;SDS011;51680;49.806;18.774;2022-07-01T02:13:05;11.35;;;5.40;;
41043;SDS011;51680;49.806;18.774;2022-07-01T02:16:07;8.63;;;4.80;;
41043;SDS011;51680;49.806;18.774;2022-07-01T02:19:09;11.23;;;4.80;;
41043;SDS011;51680;49.806;18.774;2022-07-01T02:22:12;11.27;;;4.88;;
41043;SDS011;51680;49.806;18.774;2022-07-01T02:25:13;7.80;;;5.10;;
41043;SDS011;51680;49.806;18.774;2022-07-01T02:28:15;11.82;;;5.10;;
41043;SDS011;51680;49.806;18.774;2022-07-01T02:31:17;11.10;;;4.95;;
41043;SDS011;51680;49.806;18.774;2022-07-01T02:34:19;10.93;;;5.32;;
41043;SDS011;51680;49.806;18.774;2022-07-01T02:37:22;13.13;;;5.15;;
41043;SDS011;51680;49.806;18.774;2022-07-01T02:40:24;13.13;;;4.53;;
41043;SDS011;51680;49.806;18.774;2022-07-01T02:43:26;7.28;;;4.10;;
41043;SDS011;51680;49.806;18.774;2022-07-01T02:46:27;8.10;;;4.45;;
41043;SDS011;51680;49.806;18.774;2022-07-01T02:49:29;10.80;;;4.40;;
41043;SDS011;51680;49.806;18.774;2022-07-01T02:52:32;9.10;;;4.93;;
41043;SDS011;51680;49.806;18.774;2022-07-01T02:55:36;6.90;;;4.47;;
41043;SDS011;51680;49.806;18.774;2022-07-01T02:58:37;10.02;;;4.53;;
41043;SDS011;51680;49.806;18.774;2022-07-01T03:01:40;7.90;;;4.38;;
41043;SDS011;51680;49.806;18.774;2022-07-01T03:04:41;11.10;;;4.60;;
41043;SDS011;51680;49.806;18.774;2022-07-01T03:07:44;8.57;;;3.83;;
41043;SDS011;51680;49.806;18.774;2022-07-01T03:10:46;10.13;;;4.53;;
41043;SDS011;51680;49.806;18.774;2022-07-01T03:13:48;6.07;;;4.03;;
41043;SDS011;51680;49.806;18.774;2022-07-01T03:16:51;6.80;;;4.15;;
41043;SDS011;51680;49.806;18.774;2022-07-01T03:19:53;6.45;;;3.72;;
41043;SDS011;51680;49.806;18.774;2022-07-01T03:22:57;6.38;;;3.90;;
41043;SDS011;51680;49.806;18.774;2022-07-01T03:25:58;7.72;;;4.30;;
41043;SDS011;51680;49.806;18.774;2022-07-01T03:29:00;9.52;;;4.18;;
41043;SDS011;51680;49.806;18.774;2022-07-01T03:32:02;8.48;;;3.60;;
41043;SDS011;51680;49.806;18.774;2022-07-01T03:35:04;7.53;;;3.92;;
41043;SDS011;51680;49.806;18.774;2022-07-01T03:38:28;5.55;;;3.90;;
41043;SDS011;51680;49.806;18.774;2022-07-01T03:41:29;7.33;;;3.97;;
41043;SDS011;51680;49.806;18.774;2022-07-01T03:44:31;7.38;;;4.15;;
41043;SDS011;51680;49.806;18.774;2022-07-01T03:47:33;5.70;;;3.40;;
41043;SDS011;51680;49.806;18.774;2022-07-01T03:50:36;6.45;;;3.40;;
41043;SDS011;51680;49.806;18.774;2022-07-01T03:53:39;5.32;;;3.20;;
41043;SDS011;51680;49.806;18.774;2022-07-01T03:56:58;3.92;;;3.15;;
41043;SDS011;51680;49.806;18.774;2022-07-01T04:00:01;5.85;;;3.55;;
41043;SDS011;51680;49.806;18.774;2022-07-01T04:03:05;4.95;;;3.17;;
41043;SDS011;51680;49.806;18.774;2022-07-01T04:06:07;10.55;;;3.75;;
41043;SDS011;51680;49.806;18.774;2022-07-01T04:09:11;11.07;;;3.55;;
41043;SDS011;51680;49.806;18.774;2022-07-01T04:12:14;5.57;;;3.45;;
41043;SDS011;51680;49.806;18.774;2022-07-01T04:15:16;10.25;;;4.10;;
41043;SDS011;51680;49.806;18.774;2022-07-01T04:18:18;11.32;;;3.70;;
41043;SDS011;51680;49.806;18.774;2022-07-01T04:21:20;6.03;;;3.20;;
41043;SDS011;51680;49.806;18.774;2022-07-01T04:24:41;6.38;;;3.30;;
41043;SDS011;51680;49.806;18.774;2022-07-01T04:27:43;5.78;;;3.85;;
41043;SDS011;51680;49.806;18.774;2022-07-01T04:30:45;6.45;;;3.30;;
41043;SDS011;51680;49.806;18.774;2022-07-01T04:33:47;6.57;;;3.70;;
41043;SDS011;51680;49.806;18.774;2022-07-01T04:36:50;6.93;;;3.55;;
41043;SDS011;51680;49.806;18.774;2022-07-01T04:39:53;10.32;;;3.63;;
41043;SDS011;51680;49.806;18.774;2022-07-01T04:42:55;8.50;;;3.50;;
41043;SDS011;51680;49.806;18.774;2022-07-01T04:45:56;8.95;;;4.00;;
41043;SDS011;51680;49.806;18.774;2022-07-01T04:48:58;5.97;;;3.33;;
41043;SDS011;51680;49.806;18.774;2022-07-01T04:52:00;5.35;;;3.50;;
41043;SDS011;51680;49.806;18.774;2022-07-01T04:55:03;9.45;;;3.70;;
41043;SDS011;51680;49.806;18.774;2022-07-01T04:58:07;7.10;;;3.58;;
41043;SDS011;51680;49.806;18.774;2022-07-01T05:01:09;6.35;;;3.63;;
41043;SDS011;51680;49.806;18.774;2022-07-01T05:04:11;10.73;;;3.80;;
41043;SDS011;51680;49.806;18.774;2022-07-01T05:07:13;10.88;;;3.97;;
41043;SDS011;51680;49.806;18.774;2022-07-01T05:10:30;7.30;;;3.65;;
41043;SDS011;51680;49.806;18.774;2022-07-01T05:13:32;9.05;;;3.50;;
41043;SDS011;51680;49.806;18.774;2022-07-01T05:16:34;9.15;;;3.97;;
41043;SDS011;51680;49.806;18.774;2022-07-01T05:19:36;8.15;;;4.18;;
41043;SDS011;51680;49.806;18.774;2022-07-01T05:22:55;6.82;;;3.83;;
41043;SDS011;51680;49.806;18.774;2022-07-01T05:25:59;8.27;;;4.27;;
41043;SDS011;51680;49.806;18.774;2022-07-01T05:29:01;9.63;;;3.87;;
41043;SDS011;51680;49.806;18.774;2022-07-01T05:32:03;10.63;;;4.10;;
41043;SDS011;51680;49.806;18.774;2022-07-01T05:35:06;13.85;;;4.90;;
41043;SDS011;51680;49.806;18.774;2022-07-01T05:38:08;21.20;;;6.40;;
41043;SDS011;51680;49.806;18.774;2022-07-01T05:41:11;13.70;;;5.35;;
41043;SDS011;51680;49.806;18.774;2022-07-01T05:44:13;10.13;;;5.15;;
41043;SDS011;51680;49.806;18.774;2022-07-01T05:47:15;15.38;;;4.15;;
41043;SDS011;51680;49.806;18.774;2022-07-01T05:50:16;10.80;;;4.55;;
41043;SDS011;51680;49.806;18.774;2022-07-01T05:53:18;6.80;;;4.05;;
41043;SDS011;51680;49.806;18.774;2022-07-01T05:56:21;7.15;;;4.35;;
41043;SDS011;51680;49.806;18.774;2022-07-01T05:59:23;16.50;;;5.13;;
41043;SDS011;51680;49.806;18.774;2022-07-01T06:02:25;15.60;;;6.05;;
41043;SDS011;51680;49.806;18.774;2022-07-01T06:05:27;15.77;;;5.32;;
41043;SDS011;51680;49.806;18.774;2022-07-01T06:08:30;7.60;;;4.30;;
41043;SDS011;51680;49.806;18.774;2022-07-01T06:11:33;6.95;;;4.40;;
41043;SDS011;51680;49.806;18.774;2022-07-01T06:14:34;13.52;;;4.20;;
41043;SDS011;51680;49.806;18.774;2022-07-01T06:17:38;6.75;;;4.05;;
41043;SDS011;51680;49.806;18.774;2022-07-01T06:20:41;9.55;;;4.18;;
41043;SDS011;51680;49.806;18.774;2022-07-01T06:23:43;8.50;;;3.92;;
41043;SDS011;51680;49.806;18.774;2022-07-01T06:26:47;6.43;;;3.70;;
41043;SDS011;51680;49.806;18.774;2022-07-01T06:29:49;8.57;;;3.95;;
41043;SDS011;51680;49.806;18.774;2022-07-01T06:32:51;9.65;;;4.13;;
41043;SDS011;51680;49.806;18.774;2022-07-01T06:35:52;6.13;;;3.60;;
41043;SDS011;51680;49.806;18.774;2022-07-01T06:38:54;7.30;;;4.05;;
41043;SDS011;51680;49.806;18.774;2022-07-01T06:41:57;9.60;;;4.78;;
41043;SDS011;51680;49.806;18.774;2022-07-01T06:44:59;10.05;;;4.07;;
41043;SDS011;51680;49.806;18.774;2022-07-01T06:48:01;9.13;;;4.63;;
41043;SDS011;51680;49.806;18.774;2022-07-01T06:51:03;11.80;;;4.47;;
41043;SDS011;51680;49.806;18.774;2022-07-01T06:54:05;17.77;;;4.50;;
41043;SDS011;51680;49.806;18.774;2022-07-01T06:57:08;7.40;;;4.05;;
41043;SDS011;51680;49.806;18.774;2022-07-01T07:00:10;10.20;;;4.10;;
41043;SDS011;51680;49.806;18.774;2022-07-01T07:03:13;10.52;;;3.85;;
41043;SDS011;51680;49.806;18.774;2022-07-01T07:06:15;7.57;;;3.83;;
41043;SDS011;51680;49.806;18.774;2022-07-01T07:09:17;7.80;;;4.05;;
41043;SDS011;51680;49.806;18.774;2022-07-01T07:12:20;14.82;;;3.50;;
41043;SDS011;51680;49.806;18.774;2022-07-01T07:15:22;9.15;;;3.78;;
41043;SDS011;51680;49.806;18.774;2022-07-01T07:18:24;10.57;;;3.50;;
41043;SDS011;51680;49.806;18.774;2022-07-01T07:21:25;11.02;;;3.90;;
41043;SDS011;51680;49.806;18.774;2022-07-01T07:24:27;10.35;;;4.07;;
41043;SDS011;51680;49.806;18.774;2022-07-01T07:27:31;9.65;;;4.22;;
41043;SDS011;51680;49.806;18.774;2022-07-01T07:30:32;10.70;;;3.90;;
41043;SDS011;51680;49.806;18.774;2022-07-01T07:33:34;11.63;;;4.03;;
41043;SDS011;51680;49.806;18.774;2022-07-01T07:36:36;7.82;;;3.97;;
41043;SDS011;51680;49.806;18.774;2022-07-01T07:39:37;7.68;;;3.90;;
41043;SDS011;51680;49.806;18.774;2022-07-01T07:42:41;12.68;;;4.30;;
41043;SDS011;51680;49.806;18.774;2022-07-01T07:45:42;11.57;;;4.57;;
41043;SDS011;51680;49.806;18.774;2022-07-01T07:48:45;11.13;;;4.18;;
41043;SDS011;51680;49.806;18.774;2022-07-01T07:51:47;7.85;;;3.88;;
41043;SDS011;51680;49.806;18.774;2022-07-01T07:54:49;11.40;;;4.07;;
41043;SDS011;51680;49.806;18.774;2022-07-01T07:57:52;8.23;;;4.07;;
41043;SDS011;51680;49.806;18.774;2022-07-01T08:00:54;15.35;;;4.15;;
41043;SDS011;51680;49.806;18.774;2022-07-01T08:03:56;8.45;;;4.15;;
41043;SDS011;51680;49.806;18.774;2022-07-01T08:06:57;9.73;;;4.30;;
41043;SDS011;51680;49.806;18.774;2022-07-01T08:10:00;9.80;;;4.15;;
41043;SDS011;51680;49.806;18.774;2022-07-01T08:13:03;13.48;;;4.50;;
41043;SDS011;51680;49.806;18.774;2022-07-01T08:16:07;13.73;;;4.80;;
41043;SDS011;51680;49.806;18.774;2022-07-01T08:19:09;9.52;;;4.10;;
41043;SDS011;51680;49.806;18.774;2022-07-01T08:22:30;10.75;;;4.47;;
41043;SDS011;51680;49.806;18.774;2022-07-01T08:25:31;6.13;;;3.50;;
41043;SDS011;51680;49.806;18.774;2022-07-01T08:28:35;8.98;;;3.75;;
41043;SDS011;51680;49.806;18.774;2022-07-01T08:31:36;9.70;;;4.25;;
41043;SDS011;51680;49.806;18.774;2022-07-01T08:34:38;7.10;;;3.70;;
41043;SDS011;51680;49.806;18.774;2022-07-01T08:37:40;9.90;;;3.33;;
41043;SDS011;51680;49.806;18.774;2022-07-01T08:40:42;10.07;;;3.95;;
41043;SDS011;51680;49.806;18.774;2022-07-01T08:43:45;8.10;;;3.65;;
41043;SDS011;51680;49.806;18.774;2022-07-01T08:46:46;12.93;;;4.13;;
41043;SDS011;51680;49.806;18.774;2022-07-01T08:49:48;11.70;;;4.45;;
41043;SDS011;51680;49.806;18.774;2022-07-01T08:52:50;11.93;;;3.83;;
41043;SDS011;51680;49.806;18.774;2022-07-01T08:55:52;10.45;;;3.22;;
41043;SDS011;51680;49.806;18.774;2022-07-01T08:59:16;9.02;;;3.35;;
41043;SDS011;51680;49.806;18.774;2022-07-01T09:02:23;13.90;;;3.45;;
41043;SDS011;51680;49.806;18.774;2022-07-01T09:05:28;10.73;;;3.45;;
41043;SDS011;51680;49.806;18.774;2022-07-01T09:08:31;8.40;;;3.53;;
41043;SDS011;51680;49.806;18.774;2022-07-01T09:11:32;9.18;;;3.08;;
41043;SDS011;51680;49.806;18.774;2022-07-01T09:14:35;14.10;;;3.80;;
41043;SDS011;51680;49.806;18.774;2022-07-01T09:17:39;8.90;;;3.35;;
41043;SDS011;51680;49.806;18.774;2022-07-01T09:20:42;11.25;;;4.10;;
41043;SDS011;51680;49.806;18.774;2022-07-01T09:23:45;14.18;;;4.10;;
41043;SDS011;51680;49.806;18.774;2022-07-01T09:26:51;8.73;;;3.60;;
41043;SDS011;51680;49.806;18.774;2022-07-01T09:29:54;8.68;;;3.90;;
41043;SDS011;51680;49.806;18.774;2022-07-01T09:33:04;6.60;;;3.33;;
41043;SDS011;51680;49.806;18.774;2022-07-01T09:36:07;9.07;;;3.53;;
41043;SDS011;51680;49.806;18.774;2022-07-01T09:39:08;7.75;;;3.25;;
41043;SDS011;51680;49.806;18.774;2022-07-01T09:42:10;11.48;;;3.40;;
41043;SDS011;51680;49.806;18.774;2022-07-01T09:45:13;8.88;;;3.65;;
41043;SDS011;51680;49.806;18.774;2022-07-01T09:48:15;11.65;;;3.60;;
41043;SDS011;51680;49.806;18.774;2022-07-01T09:51:18;12.27;;;3.47;;
41043;SDS011;51680;49.806;18.774;2022-07-01T09:54:20;10.38;;;2.97;;
41043;SDS011;51680;49.806;18.774;2022-07-01T09:57:22;12.68;;;3.20;;
41043;SDS011;51680;49.806;18.774;2022-07-01T10:00:26;11.70;;;2.92;;
41043;SDS011;51680;49.806;18.774;2022-07-01T10:03:28;7.60;;;2.95;;
41043;SDS011;51680;49.806;18.774;2022-07-01T10:06:46;8.63;;;2.97;;
41043;SDS011;51680;49.806;18.774;2022-07-01T10:10:10;7.88;;;2.42;;
41043;SDS011;51680;49.806;18.774;2022-07-01T10:13:21;6.93;;;2.90;;
41043;SDS011;51680;49.806;18.774;2022-07-01T10:16:28;9.75;;;2.85;;
41043;SDS011;51680;49.806;18.774;2022-07-01T10:19:30;4.93;;;2.08;;
41043;SDS011;51680;49.806;18.774;2022-07-01T10:25:40;9.60;;;2.80;;
41043;SDS011;51680;49.806;18.774;2022-07-01T10:28:43;11.27;;;2.67;;
41043;SDS011;51680;49.806;18.774;2022-07-01T10:31:48;8.65;;;2.67;;
41043;SDS011;51680;49.806;18.774;2022-07-01T10:34:50;7.47;;;2.65;;
41043;SDS011;51680;49.806;18.774;2022-07-01T10:38:05;8.88;;;3.10;;
41043;SDS011;51680;49.806;18.774;2022-07-01T10:41:22;4.72;;;2.60;;
41043;SDS011;51680;49.806;18.774;2022-07-01T10:44:25;13.13;;;2.58;;
41043;SDS011;51680;49.806;18.774;2022-07-01T10:47:29;15.35;;;3.17;;
41043;SDS011;51680;49.806;18.774;2022-07-01T10:50:33;7.72;;;2.63;;
41043;SDS011;51680;49.806;18.774;2022-07-01T10:53:45;8.40;;;2.85;;
41043;SDS011;51680;49.806;18.774;2022-07-01T10:57:18;10.75;;;2.80;;
41043;SDS011;51680;49.806;18.774;2022-07-01T11:00:28;8.13;;;3.47;;
41043;SDS011;51680;49.806;18.774;2022-07-01T11:03:37;7.00;;;2.90;;
41043;SDS011;51680;49.806;18.774;2022-07-01T11:06:41;7.05;;;3.00;;
41043;SDS011;51680;49.806;18.774;2022-07-01T11:09:42;5.90;;;2.50;;
41043;SDS011;51680;49.806;18.774;2022-07-01T11:12:44;7.55;;;3.25;;
41043;SDS011;51680;49.806;18.774;2022-07-01T11:16:07;10.03;;;2.80;;
41043;SDS011;51680;49.806;18.774;2022-07-01T11:19:11;7.47;;;2.70;;
41043;SDS011;51680;49.806;18.774;2022-07-01T11:22:17;8.77;;;2.65;;
41043;SDS011;51680;49.806;18.774;2022-07-01T11:25:20;6.47;;;2.85;;
41043;SDS011;51680;49.806;18.774;2022-07-01T11:28:22;8.32;;;2.88;;
41043;SDS011;51680;49.806;18.774;2022-07-01T11:31:30;7.07;;;3.05;;
41043;SDS011;51680;49.806;18.774;2022-07-01T11:34:34;7.88;;;3.13;;
41043;SDS011;51680;49.806;18.774;2022-07-01T11:37:37;6.18;;;2.75;;
41043;SDS011;51680;49.806;18.774;2022-07-01T11:40:57;6.50;;;2.70;;
41043;SDS011;51680;49.806;18.774;2022-07-01T11:47:05;5.68;;;2.92;;
41043;SDS011;51680;49.806;18.774;2022-07-01T11:50:09;7.10;;;3.25;;
41043;SDS011;51680;49.806;18.774;2022-07-01T11:53:14;5.63;;;2.95;;
41043;SDS011;51680;49.806;18.774;2022-07-01T11:56:17;12.20;;;3.30;;
41043;SDS011;51680;49.806;18.774;2022-07-01T11:59:28;8.65;;;2.63;;
41043;SDS011;51680;49.806;18.774;2022-07-01T12:02:30;11.38;;;2.90;;
41043;SDS011;51680;49.806;18.774;2022-07-01T12:05:33;9.45;;;3.03;;
41043;SDS011;51680;49.806;18.774;2022-07-01T12:08:36;5.20;;;2.95;;
41043;SDS011;51680;49.806;18.774;2022-07-01T12:11:58;5.03;;;2.47;;
41043;SDS011;51680;49.806;18.774;2022-07-01T12:14:59;7.10;;;2.85;;
41043;SDS011;51680;49.806;18.774;2022-07-01T12:18:05;6.90;;;2.50;;
41043;SDS011;51680;49.806;18.774;2022-07-01T12:21:08;7.28;;;3.25;;
41043;SDS011;51680;49.806;18.774;2022-07-01T12:24:10;9.50;;;2.95;;
41043;SDS011;51680;49.806;18.774;2022-07-01T12:27:13;5.38;;;2.92;;
41043;SDS011;51680;49.806;18.774;2022-07-01T12:30:22;8.02;;;2.92;;
41043;SDS011;51680;49.806;18.774;2022-07-01T12:33:33;7.60;;;3.38;;
41043;SDS011;51680;49.806;18.774;2022-07-01T12:39:48;8.13;;;3.00;;
41043;SDS011;51680;49.806;18.774;2022-07-01T12:45:52;8.45;;;3.30;;
41043;SDS011;51680;49.806;18.774;2022-07-01T12:48:54;7.55;;;2.83;;
41043;SDS011;51680;49.806;18.774;2022-07-01T12:51:57;8.93;;;3.70;;
41043;SDS011;51680;49.806;18.774;2022-07-01T12:54:59;5.47;;;3.00;;
41043;SDS011;51680;49.806;18.774;2022-07-01T12:58:01;10.45;;;3.35;;
41043;SDS011;51680;49.806;18.774;2022-07-01T13:01:04;8.82;;;3.78;;
41043;SDS011;51680;49.806;18.774;2022-07-01T13:04:06;8.18;;;3.75;;
41043;SDS011;51680;49.806;18.774;2022-07-01T13:07:09;7.22;;;3.58;;
41043;SDS011;51680;49.806;18.774;2022-07-01T13:10:11;8.48;;;3.65;;
41043;SDS011;51680;49.806;18.774;2022-07-01T13:13:13;6.78;;;3.55;;
41043;SDS011;51680;49.806;18.774;2022-07-01T13:16:17;8.35;;;3.80;;
41043;SDS011;51680;49.806;18.774;2022-07-01T13:19:19;9.55;;;3.58;;
41043;SDS011;51680;49.806;18.774;2022-07-01T13:22:22;8.45;;;3.88;;
41043;SDS011;51680;49.806;18.774;2022-07-01T13:25:24;7.07;;;3.75;;
41043;SDS011;51680;49.806;18.774;2022-07-01T13:28:26;11.00;;;3.80;;
41043;SDS011;51680;49.806;18.774;2022-07-01T13:31:28;7.60;;;4.00;;
41043;SDS011;51680;49.806;18.774;2022-07-01T13:34:29;8.35;;;3.90;;
41043;SDS011;51680;49.806;18.774;2022-07-01T13:37:34;10.23;;;4.10;;
41043;SDS011;51680;49.806;18.774;2022-07-01T13:40:35;10.77;;;4.38;;
41043;SDS011;51680;49.806;18.774;2022-07-01T13:43:37;7.78;;;4.30;;
41043;SDS011;51680;49.806;18.774;2022-07-01T13:46:39;9.15;;;3.90;;
41043;SDS011;51680;49.806;18.774;2022-07-01T13:49:41;8.73;;;3.70;;
41043;SDS011;51680;49.806;18.774;2022-07-01T13:52:44;7.50;;;3.75;;
41043;SDS011;51680;49.806;18.774;2022-07-01T13:55:46;10.15;;;3.92;;
41043;SDS011;51680;49.806;18.774;2022-07-01T13:58:48;11.82;;;3.75;;
41043;SDS011;51680;49.806;18.774;2022-07-01T14:01:51;8.25;;;3.95;;
41043;SDS011;51680;49.806;18.774;2022-07-01T14:04:52;11.00;;;4.00;;
41043;SDS011;51680;49.806;18.774;2022-07-01T14:07:56;9.02;;;4.00;;
41043;SDS011;51680;49.806;18.774;2022-07-01T14:13:59;7.32;;;3.60;;
41043;SDS011;51680;49.806;18.774;2022-07-01T14:17:01;11.48;;;4.28;;
41043;SDS011;51680;49.806;18.774;2022-07-01T14:20:04;7.00;;;4.20;;
41043;SDS011;51680;49.806;18.774;2022-07-01T14:23:07;10.98;;;4.43;;
41043;SDS011;51680;49.806;18.774;2022-07-01T14:26:09;9.82;;;3.97;;
41043;SDS011;51680;49.806;18.774;2022-07-01T14:29:11;10.57;;;4.53;;
41043;SDS011;51680;49.806;18.774;2022-07-01T14:32:32;7.65;;;4.50;;
41043;SDS011;51680;49.806;18.774;2022-07-01T14:35:35;9.65;;;4.28;;
41043;SDS011;51680;49.806;18.774;2022-07-01T14:38:57;10.02;;;4.35;;
41043;SDS011;51680;49.806;18.774;2022-07-01T14:41:59;12.57;;;4.75;;
41043;SDS011;51680;49.806;18.774;2022-07-01T14:45:02;8.75;;;4.07;;
41043;SDS011;51680;49.806;18.774;2022-07-01T14:48:04;13.03;;;4.57;;
41043;SDS011;51680;49.806;18.774;2022-07-01T14:51:06;10.70;;;4.18;;
41043;SDS011;51680;49.806;18.774;2022-07-01T14:54:09;9.13;;;4.45;;
41043;SDS011;51680;49.806;18.774;2022-07-01T15:00:13;12.05;;;4.85;;
41043;SDS011;51680;49.806;18.774;2022-07-01T15:03:16;9.65;;;4.70;;
41043;SDS011;51680;49.806;18.774;2022-07-01T15:06:18;14.18;;;4.60;;
41043;SDS011;51680;49.806;18.774;2022-07-01T15:09:21;11.98;;;4.63;;
41043;SDS011;51680;49.806;18.774;2022-07-01T15:12:24;10.75;;;4.68;;
41043;SDS011;51680;49.806;18.774;2022-07-01T15:15:25;11.15;;;4.72;;
41043;SDS011;51680;49.806;18.774;2022-07-01T15:18:27;10.88;;;4.55;;
41043;SDS011;51680;49.806;18.774;2022-07-01T15:21:32;11.57;;;4.88;;
41043;SDS011;51680;49.806;18.774;2022-07-01T15:24:35;11.32;;;4.75;;
41043;SDS011;51680;49.806;18.774;2022-07-01T15:27:37;9.23;;;5.18;;
41043;SDS011;51680;49.806;18.774;2022-07-01T15:30:40;11.05;;;4.72;;
41043;SDS011;51680;49.806;18.774;2022-07-01T15:33:42;9.77;;;4.53;;
41043;SDS011;51680;49.806;18.774;2022-07-01T15:36:44;13.63;;;4.68;;
41043;SDS011;51680;49.806;18.774;2022-07-01T15:39:48;9.38;;;4.90;;
41043;SDS011;51680;49.806;18.774;2022-07-01T15:42:49;8.15;;;4.47;;
41043;SDS011;51680;49.806;18.774;2022-07-01T15:45:51;14.30;;;5.30;;
41043;SDS011;51680;49.806;18.774;2022-07-01T15:48:53;8.13;;;4.85;;
41043;SDS011;51680;49.806;18.774;2022-07-01T15:51:54;12.18;;;4.43;;
41043;SDS011;51680;49.806;18.774;2022-07-01T15:54:58;11.93;;;4.95;;
41043;SDS011;51680;49.806;18.774;2022-07-01T15:57:59;6.93;;;4.40;;
41043;SDS011;51680;49.806;18.774;2022-07-01T16:01:02;12.38;;;5.20;;
41043;SDS011;51680;49.806;18.774;2022-07-01T16:04:04;9.00;;;5.10;;
41043;SDS011;51680;49.806;18.774;2022-07-01T16:07:06;16.30;;;5.53;;
41043;SDS011;51680;49.806;18.774;2022-07-01T16:10:19;8.32;;;4.90;;
41043;SDS011;51680;49.806;18.774;2022-07-01T16:13:30;9.18;;;5.60;;
41043;SDS011;51680;49.806;18.774;2022-07-01T16:19:36;11.18;;;5.25;;
41043;SDS011;51680;49.806;18.774;2022-07-01T16:22:41;12.05;;;5.80;;
41043;SDS011;51680;49.806;18.774;2022-07-01T16:25:49;12.48;;;4.95;;
41043;SDS011;51680;49.806;18.774;2022-07-01T16:28:51;11.60;;;5.20;;
41043;SDS011;51680;49.806;18.774;2022-07-01T16:31:53;9.60;;;4.93;;
41043;SDS011;51680;49.806;18.774;2022-07-01T16:34:55;13.20;;;5.07;;
41043;SDS011;51680;49.806;18.774;2022-07-01T16:37:57;9.65;;;5.00;;
41043;SDS011;51680;49.806;18.774;2022-07-01T16:41:02;13.73;;;5.28;;
41043;SDS011;51680;49.806;18.774;2022-07-01T16:44:13;18.92;;;5.88;;
41043;SDS011;51680;49.806;18.774;2022-07-01T16:47:26;11.68;;;5.25;;
41043;SDS011;51680;49.806;18.774;2022-07-01T16:50:30;14.35;;;5.78;;
41043;SDS011;51680;49.806;18.774;2022-07-01T16:53:39;15.65;;;6.00;;
41043;SDS011;51680;49.806;18.774;2022-07-01T16:56:46;12.63;;;5.88;;
41043;SDS011;51680;49.806;18.774;2022-07-01T16:59:51;9.13;;;5.28;;
41043;SDS011;51680;49.806;18.774;2022-07-01T17:02:54;15.65;;;5.85;;
41043;SDS011;51680;49.806;18.774;2022-07-01T17:05:56;13.13;;;5.93;;
41043;SDS011;51680;49.806;18.774;2022-07-01T17:08:58;12.25;;;6.40;;
41043;SDS011;51680;49.806;18.774;2022-07-01T17:12:04;10.20;;;6.30;;
41043;SDS011;51680;49.806;18.774;2022-07-01T17:15:07;10.25;;;6.22;;
41043;SDS011;51680;49.806;18.774;2022-07-01T17:18:10;14.97;;;6.33;;
41043;SDS011;51680;49.806;18.774;2022-07-01T17:21:12;12.10;;;6.43;;
41043;SDS011;51680;49.806;18.774;2022-07-01T17:24:15;13.20;;;6.90;;
41043;SDS011;51680;49.806;18.774;2022-07-01T17:27:20;14.15;;;6.82;;
41043;SDS011;51680;49.806;18.774;2022-07-01T17:33:35;12.52;;;7.38;;
41043;SDS011;51680;49.806;18.774;2022-07-01T17:36:41;11.57;;;6.82;;
41043;SDS011;51680;49.806;18.774;2022-07-01T17:39:44;11.40;;;7.10;;
41043;SDS011;51680;49.806;18.774;2022-07-01T17:42:50;13.30;;;7.00;;
41043;SDS011;51680;49.806;18.774;2022-07-01T17:45:56;13.63;;;6.82;;
41043;SDS011;51680;49.806;18.774;2022-07-01T17:48:59;15.25;;;7.82;;
41043;SDS011;51680;49.806;18.774;2022-07-01T17:52:02;15.57;;;7.32;;
41043;SDS011;51680;49.806;18.774;2022-07-01T17:55:05;15.52;;;7.38;;
41043;SDS011;51680;49.806;18.774;2022-07-01T17:58:09;13.02;;;7.80;;
41043;SDS011;51680;49.806;18.774;2022-07-01T18:04:15;18.65;;;8.23;;
41043;SDS011;51680;49.806;18.774;2022-07-01T18:07:17;17.83;;;7.68;;
41043;SDS011;51680;49.806;18.774;2022-07-01T18:10:21;11.73;;;7.88;;
41043;SDS011;51680;49.806;18.774;2022-07-01T18:13:25;11.60;;;7.57;;
41043;SDS011;51680;49.806;18.774;2022-07-01T18:16:32;12.48;;;7.45;;
41043;SDS011;51680;49.806;18.774;2022-07-01T18:19:51;14.63;;;7.75;;
41043;SDS011;51680;49.806;18.774;2022-07-01T18:23:02;19.70;;;8.95;;
41043;SDS011;51680;49.806;18.774;2022-07-01T18:26:09;13.73;;;8.77;;
41043;SDS011;51680;49.806;18.774;2022-07-01T18:29:16;16.33;;;10.10;;
41043;SDS011;51680;49.806;18.774;2022-07-01T18:32:23;18.40;;;10.50;;